createdAt,value
2019-04-24T00:01:15.114Z,6.80
2019-04-24T00:03:53.303Z,7.90
2019-04-24T00:06:36.489Z,8.33
2019-04-24T00:08:52.864Z,5.80
2019-04-24T00:11:44.194Z,5.70
2019-04-24T00:14:34.842Z,5.27
2019-04-24T00:16:51.701Z,6.07
2019-04-24T00:19:27.834Z,6.17
2019-04-24T00:21:53.080Z,5.43
2019-04-24T00:24:28.988Z,5.13
2019-04-24T00:26:52.620Z,5.70
2019-04-24T00:39:27.634Z,5.77
2019-04-24T00:44:18.768Z,5.93
2019-04-24T00:49:32.325Z,6.30
2019-04-24T00:51:56.542Z,5.97
2019-04-24T00:54:31.712Z,6.13
2019-04-24T00:57:06.714Z,5.70
2019-04-24T00:59:36.383Z,6.37
2019-04-24T01:02:14.573Z,5.70
2019-04-24T01:10:11.917Z,6.20
2019-04-24T01:12:36.970Z,6.03
2019-04-24T01:15:21.714Z,6.50
2019-04-24T01:17:33.471Z,6.30
2019-04-24T01:20:24.238Z,6.17
2019-04-24T01:25:30.160Z,7.13
2019-04-24T01:27:36.797Z,6.27
2019-04-24T01:33:04.638Z,6.50
2019-04-24T01:35:26.124Z,6.37
2019-04-24T01:38:04.792Z,6.80
2019-04-24T01:40:23.248Z,6.43
2019-04-24T01:43:08.973Z,6.33
2019-04-24T01:48:16.379Z,6.30
2019-04-24T01:50:29.291Z,6.00
2019-04-24T02:00:49.207Z,5.87
2019-04-24T02:05:26.694Z,7.40
2019-04-24T02:08:16.538Z,6.73
2019-04-24T02:13:28.884Z,8.50
2019-04-24T02:15:49.441Z,7.87
2019-04-24T02:20:51.590Z,7.13
2019-04-24T02:23:25.437Z,6.43
2019-04-24T02:28:28.564Z,5.87
2019-04-24T02:31:16.276Z,6.63
2019-04-24T02:34:00.691Z,5.90
2019-04-24T02:42:12.143Z,5.70
2019-04-24T02:52:13.439Z,5.50
2019-04-24T03:02:29.473Z,10.13
2019-04-24T03:15:28.039Z,8.20
2019-04-24T03:17:59.698Z,7.87
2019-04-24T03:20:23.156Z,6.67
2019-04-24T03:25:40.419Z,9.57
2019-04-24T03:38:50.265Z,7.20
2019-04-24T03:56:24.005Z,27.40
2019-04-24T03:59:03.362Z,28.20
2019-04-24T04:01:27.279Z,58.93
2019-04-24T04:06:40.743Z,10.13
2019-04-24T04:11:38.713Z,13.53
2019-04-24T04:19:04.763Z,35.87
2019-04-24T04:34:50.659Z,9.93
2019-04-24T04:39:49.298Z,11.07
2019-04-24T04:42:30.956Z,7.60
2019-04-24T04:44:59.346Z,7.47
2019-04-24T04:47:30.216Z,6.60
2019-04-24T04:50:25.555Z,6.17
2019-04-24T04:53:11.714Z,11.07
2019-04-24T05:06:08.757Z,12.23
2019-04-24T05:10:53.715Z,9.63
2019-04-24T05:15:54.699Z,16.03
2019-04-24T05:18:38.480Z,10.50
2019-04-24T05:20:50.901Z,15.30
2019-04-24T05:23:32.507Z,11.27
2019-04-24T05:25:58.078Z,8.17
2019-04-24T05:28:37.802Z,7.53
2019-04-24T05:30:47.341Z,7.87
2019-04-24T05:33:40.689Z,10.27
2019-04-24T05:35:55.450Z,7.40
2019-04-24T05:39:04.163Z,7.83
2019-04-24T05:41:09.520Z,6.93
2019-04-24T05:46:24.168Z,7.60
2019-04-24T05:48:55.502Z,7.27
2019-04-24T05:51:17.205Z,7.30
2019-04-24T05:56:34.322Z,9.07
2019-04-24T05:59:00.591Z,12.43
2019-04-24T06:01:54.768Z,6.00
2019-04-24T06:04:40.171Z,6.83
2019-04-24T06:09:46.529Z,5.90
2019-04-24T06:12:44.725Z,6.90
2019-04-24T06:20:36.820Z,5.93
2019-04-24T06:22:52.237Z,5.60
2019-04-24T06:25:35.561Z,6.00
2019-04-24T06:27:47.863Z,5.70
2019-04-24T06:30:26.309Z,7.77
2019-04-24T06:32:37.645Z,6.53
2019-04-24T06:40:50.599Z,10.40
2019-04-24T06:43:18.037Z,8.37
2019-04-24T06:45:57.371Z,5.37
2019-04-24T06:48:26.082Z,5.57
2019-04-24T07:00:58.483Z,4.73
2019-04-24T07:06:37.577Z,4.50
2019-04-24T07:09:06.524Z,4.40
2019-04-24T07:11:29.748Z,4.60
2019-04-24T07:17:02.629Z,4.50
2019-04-24T07:19:26.294Z,5.07
2019-04-24T07:21:57.572Z,4.60
2019-04-24T07:26:59.633Z,4.63
2019-04-24T07:29:38.515Z,4.83
2019-04-24T07:32:09.517Z,5.13
2019-04-24T07:34:39.317Z,5.90
2019-04-24T07:37:10.728Z,6.07
2019-04-24T07:39:50.348Z,4.70
2019-04-24T07:42:12.081Z,5.50
2019-04-24T07:44:51.514Z,13.07
2019-04-24T07:47:27.226Z,5.90
2019-04-24T07:50:02.940Z,5.10
2019-04-24T07:52:53.769Z,10.40
2019-04-24T07:54:59.580Z,4.90
2019-04-24T07:57:49.441Z,5.07
2019-04-24T08:05:06.382Z,4.30
2019-04-24T08:13:00.037Z,4.80
2019-04-24T08:15:38.050Z,5.00
2019-04-24T08:18:01.566Z,4.67
2019-04-24T08:23:03.435Z,4.63
2019-04-24T08:25:52.270Z,4.23
2019-04-24T08:28:04.880Z,4.30
2019-04-24T08:33:18.144Z,4.30
2019-04-24T08:35:57.909Z,4.60
2019-04-24T08:38:42.366Z,4.67
2019-04-24T08:41:02.755Z,4.67
2019-04-24T08:43:44.153Z,4.10
2019-04-24T08:46:19.777Z,6.50
2019-04-24T08:49:01.623Z,5.37
2019-04-24T08:56:19.980Z,4.00
2019-04-24T09:04:15.480Z,4.90
2019-04-24T09:06:30.668Z,4.73
2019-04-24T09:09:16.383Z,4.50
2019-04-24T09:16:58.622Z,4.50
2019-04-24T09:19:23.077Z,4.57
2019-04-24T09:22:00.954Z,5.90
2019-04-24T09:24:40.356Z,4.40
2019-04-24T09:27:32.394Z,4.73
2019-04-24T09:32:44.821Z,4.63
2019-04-24T09:45:19.933Z,5.17
2019-04-24T09:48:01.001Z,4.60
2019-04-24T09:50:25.042Z,4.70
2019-04-24T09:53:20.045Z,4.23
2019-04-24T09:55:25.918Z,4.27
2019-04-24T09:58:07.488Z,4.73
2019-04-24T10:00:45.634Z,4.47
2019-04-24T10:03:01.948Z,4.70
2019-04-24T10:05:57.026Z,4.57
2019-04-24T10:08:14.328Z,4.10
2019-04-24T10:10:42.846Z,4.07
2019-04-24T10:13:11.695Z,5.37
2019-04-24T10:18:39.835Z,4.73
2019-04-24T10:23:34.803Z,4.10
2019-04-24T10:26:03.902Z,3.70
2019-04-24T10:29:08.824Z,4.10
2019-04-24T10:31:17.073Z,4.37
2019-04-24T10:34:01.464Z,3.60
2019-04-24T10:37:01.504Z,3.40
2019-04-24T10:42:01.634Z,4.03
2019-04-24T10:44:32.985Z,3.90
2019-04-24T10:47:31.135Z,4.23
2019-04-24T10:52:05.324Z,3.87
2019-04-24T10:54:48.801Z,4.13
2019-04-24T10:57:12.670Z,3.97
2019-04-24T11:05:03.613Z,4.30
2019-04-24T11:07:56.410Z,4.13
2019-04-24T11:12:51.275Z,4.20
2019-04-24T11:15:36.454Z,4.27
2019-04-24T11:17:53.483Z,3.90
2019-04-24T11:20:38.023Z,3.50
2019-04-24T11:23:15.415Z,3.70
2019-04-24T11:28:33.436Z,4.30
2019-04-24T11:31:04.924Z,3.73
2019-04-24T11:36:34.356Z,3.20
2019-04-24T11:39:09.171Z,3.73
2019-04-24T11:41:43.182Z,3.30
2019-04-24T11:49:48.021Z,3.43
2019-04-24T11:54:57.367Z,2.80
2019-04-24T11:57:47.236Z,3.23
2019-04-24T11:59:32.141Z,3.40
2019-04-24T12:02:32.609Z,3.30
2019-04-24T12:05:36.547Z,2.90
2019-04-24T12:08:16.405Z,3.70
2019-04-24T12:10:45.626Z,3.00
2019-04-24T12:13:19.026Z,3.50
2019-04-24T12:16:04.602Z,3.10
2019-04-24T12:18:54.525Z,3.03
2019-04-24T12:21:24.333Z,3.07
2019-04-24T12:26:19.801Z,3.83
2019-04-24T12:28:54.031Z,2.97
2019-04-24T12:31:36.318Z,3.27
2019-04-24T12:36:59.804Z,3.10
2019-04-24T12:39:17.714Z,3.27
2019-04-24T12:41:54.942Z,2.87
2019-04-24T12:44:40.644Z,3.40
2019-04-24T12:49:55.151Z,8.73
2019-04-24T12:52:16.014Z,3.00
2019-04-24T12:55:09.479Z,3.53
2019-04-24T12:57:37.987Z,3.23
2019-04-24T12:59:48.122Z,3.60
2019-04-24T13:02:53.398Z,3.33
2019-04-24T13:05:36.237Z,3.23
2019-04-24T13:07:56.792Z,3.30
2019-04-24T13:10:14.416Z,3.03
2019-04-24T13:13:08.438Z,3.10
2019-04-24T13:15:32.957Z,3.23
2019-04-24T13:20:14.077Z,3.30
2019-04-24T13:22:52.156Z,3.20
2019-04-24T13:25:58.492Z,3.60
2019-04-24T13:31:27.364Z,3.30
2019-04-24T13:33:54.794Z,3.47
2019-04-24T13:36:29.842Z,3.10
2019-04-24T13:38:56.470Z,4.23
2019-04-24T13:41:32.815Z,3.87
2019-04-24T13:44:05.889Z,3.90
2019-04-24T13:46:36.974Z,3.33
2019-04-24T13:51:42.201Z,3.20
2019-04-24T13:54:17.280Z,3.43
2019-04-24T13:56:42.003Z,3.63
2019-04-24T13:59:07.338Z,4.30
2019-04-24T14:06:54.657Z,3.97
2019-04-24T14:12:39.807Z,3.73
2019-04-24T14:14:08.659Z,3.63
2019-04-24T14:21:55.840Z,3.73
2019-04-24T14:24:28.226Z,3.70
2019-04-24T14:29:32.024Z,3.43
2019-04-24T14:32:00.195Z,3.87
2019-04-24T14:37:05.217Z,3.50
2019-04-24T14:42:03.633Z,3.50
2019-04-24T14:47:20.372Z,3.73
2019-04-24T14:49:58.902Z,3.70
2019-04-24T14:52:29.337Z,4.20
2019-04-24T14:55:02.696Z,4.43
2019-04-24T14:57:21.544Z,3.10
2019-04-24T15:02:30.114Z,4.00
2019-04-24T15:04:53.545Z,4.17
2019-04-24T15:10:03.708Z,4.93
2019-04-24T15:15:08.890Z,3.67
2019-04-24T15:17:29.052Z,3.53
2019-04-24T15:20:09.612Z,3.80
2019-04-24T15:22:31.561Z,3.60
2019-04-24T15:25:06.475Z,3.80
2019-04-24T15:27:23.906Z,4.00
2019-04-24T15:30:02.483Z,3.50
2019-04-24T15:35:10.737Z,3.73
2019-04-24T15:37:33.084Z,4.47
2019-04-24T15:40:25.023Z,4.10
2019-04-24T15:42:35.977Z,3.57
2019-04-24T15:45:05.945Z,3.93
2019-04-24T15:50:15.973Z,3.53
2019-04-24T15:52:15.223Z,4.10
2019-04-24T15:54:43.950Z,3.17
2019-04-24T15:57:13.319Z,3.53
2019-04-24T16:00:09.470Z,3.60
2019-04-24T16:02:53.302Z,3.60
2019-04-24T16:04:54.631Z,3.40
2019-04-24T16:07:17.554Z,3.70
2019-04-24T16:09:47.842Z,3.60
2019-04-24T16:12:16.632Z,3.53
2019-04-24T16:15:12.260Z,4.13
2019-04-24T16:17:52.441Z,3.63
2019-04-24T16:22:50.368Z,3.70
2019-04-24T16:25:31.405Z,3.77
2019-04-24T16:30:14.243Z,4.10
2019-04-24T16:38:00.368Z,12.07
2019-04-24T16:43:09.448Z,6.07
2019-04-24T16:48:26.601Z,4.70
2019-04-24T16:50:36.595Z,4.57
2019-04-24T16:53:03.306Z,4.90
2019-04-24T17:00:34.698Z,6.50
2019-04-24T17:08:09.283Z,14.10
2019-04-24T17:10:30.847Z,18.07
2019-04-24T17:18:29.423Z,11.00
2019-04-24T17:21:12.062Z,11.00
2019-04-24T17:23:15.036Z,12.60
2019-04-24T17:25:58.403Z,10.90
2019-04-24T17:28:27.893Z,9.83
2019-04-24T17:33:21.197Z,9.10
2019-04-24T17:35:59.877Z,10.10
2019-04-24T17:38:02.581Z,8.13
2019-04-24T17:40:32.723Z,7.97
2019-04-24T17:43:22.331Z,6.33
2019-04-24T17:46:04.999Z,7.77
2019-04-24T17:48:19.190Z,7.57
2019-04-24T17:51:04.037Z,8.00
2019-04-24T17:53:32.715Z,7.17
2019-04-24T17:56:01.304Z,8.50
2019-04-24T18:00:43.835Z,15.33
2019-04-24T18:03:16.086Z,11.50
2019-04-24T18:05:43.442Z,10.73
2019-04-24T18:08:13.111Z,11.23
2019-04-24T18:10:42.154Z,11.67
2019-04-24T18:13:11.419Z,11.90
2019-04-24T18:15:42.343Z,10.20
2019-04-24T18:18:13.222Z,11.93
2019-04-24T18:20:42.109Z,11.93
2019-04-24T18:23:11.526Z,12.57
2019-04-24T18:25:48.556Z,12.33
2019-04-24T18:28:17.283Z,12.07
2019-04-24T18:30:46.029Z,12.20
2019-04-24T18:33:15.849Z,12.93
2019-04-24T18:35:46.315Z,13.80
2019-04-24T18:38:18.075Z,12.50
2019-04-24T18:40:46.455Z,11.10
2019-04-24T18:43:17.301Z,10.93
2019-04-24T18:45:47.564Z,11.33
2019-04-24T18:48:16.522Z,11.47
2019-04-24T18:50:45.247Z,10.30
2019-04-24T18:53:25.397Z,8.30
2019-04-24T18:56:05.859Z,8.87
2019-04-24T18:58:42.512Z,9.27
2019-04-24T19:01:12.090Z,8.70
2019-04-24T19:03:41.617Z,8.23
2019-04-24T19:06:25.913Z,8.47
2019-04-24T19:08:41.540Z,7.83
2019-04-24T19:11:11.534Z,7.80
2019-04-24T19:13:41.298Z,6.93
2019-04-24T19:16:13.153Z,7.53
2019-04-24T19:18:42.428Z,7.00
2019-04-24T19:21:11.217Z,6.70
2019-04-24T19:23:41.568Z,6.80
2019-04-24T19:26:12.569Z,7.23
2019-04-24T19:28:41.474Z,6.90
2019-04-24T19:31:12.422Z,6.83
2019-04-24T19:33:41.348Z,6.60
2019-04-24T19:36:10.701Z,5.77
2019-04-24T19:38:41.933Z,5.60
2019-04-24T19:41:12.798Z,6.03
2019-04-24T19:43:41.589Z,6.43
2019-04-24T19:46:15.479Z,5.70
2019-04-24T19:48:41.851Z,5.47
2019-04-24T19:51:12.253Z,5.53
2019-04-24T19:53:41.903Z,6.10
2019-04-24T19:56:12.710Z,5.27
2019-04-24T19:58:42.259Z,5.70
2019-04-24T20:01:13.814Z,5.53
2019-04-24T20:03:43.159Z,5.60
2019-04-24T20:06:13.992Z,6.47
2019-04-24T20:08:42.692Z,5.33
2019-04-24T20:11:14.204Z,4.93
2019-04-24T20:13:43.471Z,4.70
2019-04-24T20:16:13.021Z,4.87
2019-04-24T20:18:42.138Z,4.70
2019-04-24T20:21:11.363Z,4.70
2019-04-24T20:23:42.312Z,4.40
2019-04-24T20:26:11.347Z,4.53
2019-04-24T20:28:41.643Z,4.40
2019-04-24T20:31:11.764Z,4.87
2019-04-24T20:33:41.006Z,5.03
2019-04-24T20:36:11.425Z,5.27
2019-04-24T20:38:41.956Z,5.20
2019-04-24T20:41:12.033Z,5.07
2019-04-24T20:43:41.848Z,5.00
2019-04-24T20:46:11.631Z,5.00
2019-04-24T20:48:40.358Z,4.63
2019-04-24T20:51:09.088Z,5.13
2019-04-24T20:53:40.262Z,5.03
2019-04-24T20:56:09.273Z,4.60
2019-04-24T20:58:38.006Z,4.47
2019-04-24T21:01:08.433Z,4.90
2019-04-24T21:03:37.159Z,4.70
2019-04-24T21:06:07.447Z,4.80
2019-04-24T21:08:44.611Z,5.10
2019-04-24T21:11:13.341Z,4.80
2019-04-24T21:13:42.252Z,4.57
2019-04-24T21:16:12.299Z,4.47
2019-04-24T21:18:41.179Z,4.60
2019-04-24T21:21:09.906Z,4.40
2019-04-24T21:23:38.756Z,4.70
2019-04-24T21:26:07.482Z,4.67
2019-04-24T21:28:36.197Z,4.50
2019-04-24T21:31:05.944Z,4.90
2019-04-24T21:33:34.665Z,4.63
2019-04-24T21:36:03.391Z,5.80
2019-04-24T21:38:32.181Z,5.47
2019-04-24T21:41:01.571Z,6.80
2019-04-24T21:43:32.877Z,6.20
2019-04-24T21:46:00.871Z,10.23
2019-04-24T21:48:30.041Z,7.23
2019-04-24T21:51:00.205Z,7.53
2019-04-24T21:53:29.745Z,6.77
2019-04-24T21:55:58.476Z,6.17
2019-04-24T21:58:27.199Z,5.40
2019-04-24T22:01:04.099Z,5.53
2019-04-24T22:03:41.783Z,5.83
2019-04-24T22:06:12.958Z,5.50
2019-04-24T22:08:41.690Z,5.40
2019-04-24T22:11:11.411Z,5.70
2019-04-24T22:13:40.388Z,5.40
2019-04-24T22:16:09.590Z,6.20
2019-04-24T22:18:38.726Z,6.30
2019-04-24T22:21:09.056Z,6.60
2019-04-24T22:23:48.242Z,6.47
2019-04-24T22:26:18.643Z,6.27
2019-04-24T22:28:47.402Z,7.33
2019-04-24T22:31:23.780Z,7.30
2019-04-24T22:33:54.068Z,7.17
2019-04-24T22:36:22.797Z,8.53
2019-04-24T22:39:02.408Z,8.23
2019-04-24T22:41:31.419Z,8.17
2019-04-24T22:44:00.223Z,8.60
2019-04-24T22:46:30.020Z,11.40
2019-04-24T22:48:58.939Z,13.13
2019-04-24T22:51:28.255Z,11.63
2019-04-24T22:53:58.765Z,10.37
2019-04-24T22:56:39.699Z,11.30
2019-04-24T22:58:57.970Z,11.73
2019-04-24T23:01:26.892Z,11.83
2019-04-24T23:03:55.637Z,11.03
2019-04-24T23:06:24.393Z,10.50
2019-04-24T23:08:53.241Z,10.13
2019-04-24T23:11:22.696Z,10.80
2019-04-24T23:13:51.539Z,10.30
2019-04-24T23:16:20.457Z,12.03
2019-04-24T23:18:51.877Z,11.70
2019-04-24T23:21:30.580Z,9.43
2019-04-24T23:24:12.411Z,9.47
2019-04-24T23:26:42.778Z,9.40
2019-04-24T23:29:22.248Z,9.27
2019-04-24T23:31:58.900Z,9.23
2019-04-24T23:34:29.188Z,9.90
2019-04-24T23:36:57.915Z,9.53
2019-04-24T23:39:27.621Z,9.50
2019-04-24T23:41:56.343Z,10.03
2019-04-24T23:44:25.065Z,11.03
2019-04-24T23:46:53.874Z,10.23
2019-04-24T23:49:22.607Z,9.80
2019-04-24T23:51:51.343Z,10.33
2019-04-24T23:54:20.236Z,12.00
2019-04-24T23:56:48.956Z,11.63
2019-04-24T23:59:17.677Z,12.03
